createdAt,value
2023-04-13T00:01:00.197Z,52.37
2023-04-13T00:03:30.991Z,52.75
2023-04-13T00:05:58.929Z,52.97
2023-04-13T00:08:26.913Z,52.44
2023-04-13T00:10:57.377Z,53.26
2023-04-13T00:13:25.769Z,52.91
2023-04-13T00:15:55.833Z,53.67
2023-04-13T00:18:24.115Z,53.50
2023-04-13T00:20:52.047Z,53.76
2023-04-13T00:23:19.991Z,54.53
2023-04-13T00:25:47.848Z,54.73
2023-04-13T00:28:18.409Z,55.59
2023-04-13T00:30:46.361Z,55.55
2023-04-13T00:33:14.386Z,55.27
2023-04-13T00:35:43.581Z,55.45
2023-04-13T00:38:11.593Z,55.54
2023-04-13T00:40:39.488Z,55.68
2023-04-13T00:43:07.301Z,55.74
2023-04-13T00:45:39.100Z,55.12
2023-04-13T00:48:10.744Z,54.87
2023-04-13T00:50:39.080Z,54.48
2023-04-13T00:53:10.694Z,54.34
2023-04-13T00:55:42.214Z,54.31
2023-04-13T00:58:10.483Z,54.30
2023-04-13T01:00:43.225Z,55.07
2023-04-13T01:03:11.834Z,54.94
2023-04-13T01:05:50.385Z,54.35
2023-04-13T01:08:26.495Z,54.86
2023-04-13T01:11:03.459Z,55.07
2023-04-13T01:13:41.326Z,55.37
2023-04-13T01:16:19.988Z,55.38
2023-04-13T01:18:52.380Z,55.25
2023-04-13T01:21:24.275Z,55.39
2023-04-13T01:24:04.214Z,55.21
2023-04-13T01:26:39.377Z,55.48
2023-04-13T01:29:10.105Z,55.75
2023-04-13T01:31:38.861Z,55.58
2023-04-13T01:34:07.170Z,55.41
2023-04-13T01:36:35.517Z,56.56
2023-04-13T01:39:04.313Z,56.43
2023-04-13T01:41:33.460Z,56.78
2023-04-13T01:44:01.882Z,56.81
2023-04-13T01:46:35.495Z,56.41
2023-04-13T01:49:11.444Z,55.73
2023-04-13T01:52:09.648Z,55.21
2023-04-13T01:54:41.325Z,56.03
2023-04-13T01:57:13.375Z,54.79
2023-04-13T01:59:41.677Z,54.82
2023-04-13T02:02:16.965Z,54.84
2023-04-13T02:04:45.124Z,55.73
2023-04-13T02:07:12.967Z,55.37
2023-04-13T02:09:46.988Z,55.36
2023-04-13T02:12:17.344Z,55.40
2023-04-13T02:14:45.454Z,55.40
2023-04-13T02:17:13.685Z,56.27
2023-04-13T02:19:43.965Z,56.21
2023-04-13T02:22:12.729Z,56.17
2023-04-13T02:24:42.303Z,55.76
2023-04-13T02:27:10.780Z,56.16
2023-04-13T02:29:38.604Z,56.19
2023-04-13T02:32:06.756Z,56.25
2023-04-13T02:34:34.936Z,56.29
2023-04-13T02:37:04.329Z,56.02
2023-04-13T02:39:33.029Z,55.56
2023-04-13T02:42:02.327Z,55.65
2023-04-13T02:44:32.086Z,55.67
2023-04-13T02:47:00.464Z,55.86
2023-04-13T02:49:28.602Z,55.90
2023-04-13T02:52:27.183Z,55.85
2023-04-13T02:55:05.824Z,56.00
2023-04-13T02:57:46.663Z,56.39
2023-04-13T03:00:16.867Z,56.21
2023-04-13T03:02:53.058Z,56.22
2023-04-13T03:05:22.403Z,55.94
2023-04-13T03:07:51.735Z,55.84
2023-04-13T03:10:19.881Z,56.04
2023-04-13T03:12:48.996Z,56.10
2023-04-13T03:15:18.152Z,55.99
2023-04-13T03:17:46.502Z,56.30
2023-04-13T03:20:23.465Z,55.86
2023-04-13T03:22:58.723Z,55.59
2023-04-13T03:25:28.932Z,55.33
2023-04-13T03:27:57.335Z,55.32
2023-04-13T03:30:27.443Z,55.08
2023-04-13T03:32:58.977Z,55.37
2023-04-13T03:35:29.619Z,55.33
2023-04-13T03:38:01.656Z,55.51
2023-04-13T03:40:41.737Z,55.83
2023-04-13T03:43:10.196Z,55.94
2023-04-13T03:45:42.696Z,56.31
2023-04-13T03:48:13.313Z,57.02
2023-04-13T03:50:41.285Z,57.91
2023-04-13T03:53:12.633Z,58.22
2023-04-13T03:55:43.810Z,58.34
2023-04-13T03:58:12.605Z,58.12
2023-04-13T04:00:40.646Z,58.08
2023-04-13T04:03:17.606Z,57.89
2023-04-13T04:06:08.533Z,57.49
2023-04-13T04:08:40.382Z,57.10
2023-04-13T04:11:18.516Z,57.15
2023-04-13T04:13:46.663Z,57.08
2023-04-13T04:16:14.636Z,56.98
2023-04-13T04:18:48.567Z,57.02
2023-04-13T04:21:21.787Z,56.98
2023-04-13T04:23:52.250Z,56.88
2023-04-13T04:26:25.512Z,56.83
2023-04-13T04:29:02.279Z,56.99
2023-04-13T04:31:37.484Z,56.22
2023-04-13T04:34:11.512Z,56.40
2023-04-13T04:36:45.529Z,56.40
2023-04-13T04:39:21.883Z,56.98
2023-04-13T04:42:02.987Z,57.06
2023-04-13T04:44:32.353Z,57.44
2023-04-13T04:47:04.969Z,57.22
2023-04-13T04:49:38.830Z,57.19
2023-04-13T04:52:06.703Z,56.90
2023-04-13T04:54:35.898Z,56.53
2023-04-13T04:57:04.095Z,56.84
2023-04-13T04:59:33.918Z,56.73
2023-04-13T05:02:04.652Z,56.61
2023-04-13T05:04:34.557Z,57.15
2023-04-13T05:07:02.651Z,57.46
2023-04-13T05:09:37.466Z,57.07
2023-04-13T05:12:06.631Z,56.87
2023-04-13T05:14:34.834Z,57.01
2023-04-13T05:17:03.461Z,56.42
2023-04-13T05:19:39.207Z,56.07
2023-04-13T05:22:20.924Z,56.11
2023-04-13T05:24:57.501Z,55.97
2023-04-13T05:27:25.402Z,55.71
2023-04-13T05:29:57.166Z,55.93
2023-04-13T05:32:26.649Z,56.04
2023-04-13T05:34:58.102Z,55.31
2023-04-13T05:37:28.153Z,55.01
2023-04-13T05:39:57.627Z,55.23
2023-04-13T05:42:32.190Z,55.02
2023-04-13T05:45:01.365Z,54.79
2023-04-13T05:47:30.713Z,55.20
2023-04-13T05:50:10.256Z,54.94
2023-04-13T05:52:38.287Z,54.59
2023-04-13T05:55:08.195Z,54.77
2023-04-13T05:57:37.461Z,54.25
2023-04-13T06:00:12.205Z,54.59
2023-04-13T06:02:50.759Z,54.10
2023-04-13T06:05:19.741Z,54.78
2023-04-13T06:07:47.880Z,55.08
2023-04-13T06:10:19.516Z,55.13
2023-04-13T06:12:48.516Z,55.66
2023-04-13T06:15:16.463Z,55.99
2023-04-13T06:17:44.524Z,55.86
2023-04-13T06:20:13.029Z,55.45
2023-04-13T06:22:41.044Z,55.02
2023-04-13T06:25:10.926Z,55.16
2023-04-13T06:27:43.390Z,55.46
2023-04-13T06:30:12.279Z,54.42
2023-04-13T06:32:40.465Z,54.10
2023-04-13T06:35:09.533Z,53.48
2023-04-13T06:37:44.132Z,53.27
2023-04-13T06:40:16.972Z,52.71
2023-04-13T06:42:56.221Z,52.25
2023-04-13T06:45:30.922Z,52.37
2023-04-13T06:48:01.451Z,52.12
2023-04-13T06:50:32.450Z,51.34
2023-04-13T06:53:03.560Z,51.00
2023-04-13T06:55:31.534Z,50.62
2023-04-13T06:58:01.405Z,49.77
2023-04-13T07:00:30.616Z,49.82
2023-04-13T07:03:01.843Z,49.40
2023-04-13T07:05:30.580Z,49.16
2023-04-13T07:08:06.489Z,49.19
2023-04-13T07:10:39.326Z,49.47
2023-04-13T07:13:13.798Z,48.93
2023-04-13T07:15:42.659Z,49.14
2023-04-13T07:18:10.650Z,49.22
2023-04-13T07:20:39.700Z,49.83
2023-04-13T07:23:08.926Z,49.68
2023-04-13T07:25:37.240Z,49.62
2023-04-13T07:28:08.073Z,49.66
2023-04-13T07:30:37.897Z,50.08
2023-04-13T07:33:05.997Z,49.61
2023-04-13T07:35:34.087Z,49.99
2023-04-13T07:38:02.006Z,49.71
2023-04-13T07:40:30.434Z,49.73
2023-04-13T07:43:02.436Z,49.69
2023-04-13T07:45:33.372Z,49.77
2023-04-13T07:48:03.926Z,50.72
2023-04-13T07:50:32.289Z,51.18
2023-04-13T07:53:00.393Z,51.65
2023-04-13T07:55:28.761Z,52.49
2023-04-13T07:57:59.775Z,52.55
2023-04-13T08:00:28.002Z,52.79
2023-04-13T08:02:59.568Z,52.15
2023-04-13T08:05:30.689Z,51.45
2023-04-13T08:07:58.565Z,51.32
2023-04-13T08:10:26.556Z,50.94
2023-04-13T08:12:56.113Z,50.26
2023-04-13T08:15:24.914Z,49.67
2023-04-13T08:17:53.918Z,48.83
2023-04-13T08:20:22.919Z,49.00
2023-04-13T08:22:54.649Z,48.72
2023-04-13T08:25:22.624Z,48.48
2023-04-13T08:27:51.148Z,48.14
2023-04-13T08:30:19.869Z,47.88
2023-04-13T08:32:54.751Z,47.59
2023-04-13T08:35:24.338Z,47.53
2023-04-13T08:37:54.078Z,47.77
2023-04-13T08:40:22.728Z,48.35
2023-04-13T08:42:55.500Z,49.00
2023-04-13T08:45:23.715Z,49.12
2023-04-13T08:47:51.789Z,49.38
2023-04-13T08:50:23.621Z,49.33
2023-04-13T08:52:55.896Z,49.13
2023-04-13T08:55:26.412Z,49.20
2023-04-13T08:57:59.442Z,49.02
2023-04-13T09:00:27.584Z,48.80
2023-04-13T09:03:06.221Z,48.64
2023-04-13T09:05:42.488Z,49.06
2023-04-13T09:08:14.204Z,50.79
2023-04-13T09:10:46.019Z,51.92
2023-04-13T09:13:13.964Z,52.17
2023-04-13T09:15:42.827Z,52.09
2023-04-13T09:18:18.930Z,52.37
2023-04-13T09:20:58.869Z,52.31
2023-04-13T09:23:28.173Z,52.19
2023-04-13T09:26:06.958Z,51.91
2023-04-13T09:28:35.105Z,51.57
2023-04-13T09:31:04.540Z,52.17
2023-04-13T09:33:44.583Z,51.98
2023-04-13T09:36:12.948Z,52.66
2023-04-13T09:38:44.160Z,52.41
2023-04-13T09:41:12.184Z,52.55
2023-04-13T09:43:41.016Z,52.78
2023-04-13T09:46:16.207Z,52.53
2023-04-13T09:48:44.111Z,52.48
2023-04-13T09:51:12.087Z,52.72
2023-04-13T09:53:47.290Z,52.82
2023-04-13T09:56:16.007Z,52.56
2023-04-13T09:58:45.640Z,52.59
2023-04-13T10:01:15.222Z,51.93
2023-04-13T10:03:44.629Z,52.24
2023-04-13T10:06:12.768Z,51.70
2023-04-13T10:08:42.110Z,51.64
2023-04-13T10:11:14.477Z,51.37
2023-04-13T10:13:49.170Z,51.54
2023-04-13T10:16:39.048Z,51.44
2023-04-13T10:19:12.406Z,51.33
2023-04-13T10:21:41.785Z,51.96
2023-04-13T10:24:12.915Z,51.70
2023-04-13T10:26:43.999Z,52.21
2023-04-13T10:29:14.677Z,52.36
2023-04-13T10:31:46.638Z,52.50
2023-04-13T10:34:25.484Z,53.00
2023-04-13T10:36:56.047Z,52.93
2023-04-13T10:39:25.958Z,53.10
2023-04-13T10:42:01.817Z,53.16
2023-04-13T10:44:30.029Z,53.29
2023-04-13T10:46:59.296Z,53.40
2023-04-13T10:49:36.570Z,53.48
2023-04-13T10:52:04.624Z,53.64
2023-04-13T10:54:33.896Z,54.05
2023-04-13T10:57:04.567Z,53.97
2023-04-13T10:59:56.351Z,53.87
2023-04-13T11:02:27.922Z,53.78
2023-04-13T11:04:56.848Z,53.77
2023-04-13T11:07:26.611Z,53.88
2023-04-13T11:10:02.947Z,54.70
2023-04-13T11:12:32.738Z,54.72
2023-04-13T11:15:00.923Z,54.40
2023-04-13T11:17:29.000Z,54.13
2023-04-13T11:19:58.075Z,54.17
2023-04-13T11:22:28.095Z,53.92
2023-04-13T11:25:08.548Z,53.96
2023-04-13T11:27:38.642Z,54.22
2023-04-13T11:30:09.457Z,54.25
2023-04-13T11:32:43.581Z,54.23
2023-04-13T11:35:14.606Z,54.08
2023-04-13T11:37:44.039Z,53.98
2023-04-13T11:40:15.079Z,54.09
2023-04-13T11:42:46.954Z,54.30
2023-04-13T11:45:18.496Z,54.56
2023-04-13T11:47:48.284Z,55.08
2023-04-13T11:50:17.623Z,55.47
2023-04-13T11:52:47.689Z,55.75
2023-04-13T11:55:23.063Z,56.25
2023-04-13T11:57:54.388Z,56.00
2023-04-13T12:00:25.839Z,56.07
2023-04-13T12:05:28.769Z,55.86
2023-04-13T12:07:58.644Z,56.27
2023-04-13T12:10:37.323Z,56.59
2023-04-13T12:15:58.140Z,57.92
2023-04-13T12:18:37.234Z,58.99
2023-04-13T12:21:06.520Z,59.01
2023-04-13T12:23:34.598Z,59.65
2023-04-13T12:26:25.876Z,59.60
2023-04-13T12:28:58.013Z,60.25
2023-04-13T12:31:26.374Z,59.59
2023-04-13T12:33:54.292Z,59.21
2023-04-13T12:36:22.172Z,59.27
2023-04-13T12:38:50.097Z,58.72
2023-04-13T12:41:18.110Z,58.51
2023-04-13T12:43:45.987Z,57.90
2023-04-13T12:46:15.659Z,57.94
2023-04-13T12:48:43.531Z,57.88
2023-04-13T12:51:11.404Z,57.80
2023-04-13T12:53:39.413Z,58.19
2023-04-13T12:56:08.236Z,58.37
2023-04-13T12:58:36.388Z,58.15
2023-04-13T13:01:04.415Z,58.08
2023-04-13T13:03:33.783Z,58.24
2023-04-13T13:06:01.805Z,58.17
2023-04-13T13:08:30.940Z,58.29
2023-04-13T13:11:00.880Z,57.67
2023-04-13T13:13:29.069Z,57.82
2023-04-13T13:15:56.994Z,58.10
2023-04-13T13:18:30.088Z,58.50
2023-04-13T13:21:05.011Z,58.38
2023-04-13T13:23:32.896Z,58.30
2023-04-13T13:26:22.227Z,58.81
2023-04-13T13:28:50.702Z,58.49
2023-04-13T13:31:19.052Z,58.99
2023-04-13T13:33:47.106Z,59.43
2023-04-13T13:36:16.512Z,60.07
2023-04-13T13:38:44.699Z,60.17
2023-04-13T13:41:12.589Z,59.92
2023-04-13T13:43:40.941Z,60.34
2023-04-13T13:46:09.007Z,60.43
2023-04-13T13:48:39.261Z,60.36
2023-04-13T13:51:24.367Z,59.89
2023-04-13T13:53:52.359Z,59.74
2023-04-13T13:56:20.620Z,60.62
2023-04-13T13:58:48.641Z,60.80
2023-04-13T14:01:17.940Z,61.05
2023-04-13T14:03:46.408Z,61.81
2023-04-13T14:06:14.467Z,62.68
2023-04-13T14:08:43.690Z,62.82
2023-04-13T14:11:12.425Z,62.81
2023-04-13T14:13:40.333Z,63.25
2023-04-13T14:16:08.921Z,63.32
2023-04-13T14:18:36.931Z,63.72
2023-04-13T14:21:05.361Z,64.04
2023-04-13T14:23:33.233Z,64.28
2023-04-13T14:26:02.549Z,64.62
2023-04-13T14:28:30.562Z,64.30
2023-04-13T14:30:58.579Z,64.49
2023-04-13T14:33:27.464Z,64.66
2023-04-13T14:35:55.613Z,64.67
2023-04-13T14:38:23.741Z,65.27
2023-04-13T14:40:51.806Z,65.12
2023-04-13T14:43:21.088Z,65.07
2023-04-13T14:45:53.399Z,65.33
2023-04-13T14:48:21.782Z,64.25
2023-04-13T14:50:49.695Z,65.19
2023-04-13T14:53:17.816Z,64.51
2023-04-13T14:55:45.942Z,64.63
2023-04-13T14:58:13.905Z,64.73
2023-04-13T15:00:43.113Z,65.30
2023-04-13T15:03:13.921Z,65.97
2023-04-13T15:05:45.410Z,65.60
2023-04-13T15:08:15.757Z,65.82
2023-04-13T15:10:43.871Z,66.14
2023-04-13T15:13:11.793Z,65.65
2023-04-13T15:15:40.516Z,65.87
2023-04-13T15:18:09.973Z,66.15
2023-04-13T15:20:37.853Z,65.89
2023-04-13T15:23:05.719Z,66.29
2023-04-13T15:25:33.670Z,65.37
2023-04-13T15:28:01.597Z,65.72
2023-04-13T15:30:31.680Z,66.20
2023-04-13T15:33:02.338Z,65.50
2023-04-13T15:35:34.632Z,65.86
2023-04-13T15:38:03.001Z,65.89
2023-04-13T15:40:33.755Z,66.24
2023-04-13T15:43:01.720Z,66.07
2023-04-13T15:45:29.686Z,65.63
2023-04-13T15:47:57.734Z,66.10
2023-04-13T15:50:26.086Z,66.36
2023-04-13T15:52:55.578Z,65.89
2023-04-13T15:55:23.732Z,66.27
2023-04-13T15:57:53.658Z,66.40
2023-04-13T16:00:21.966Z,66.41
2023-04-13T16:02:50.379Z,66.21
2023-04-13T16:05:19.650Z,66.96
2023-04-13T16:07:47.659Z,66.29
2023-04-13T16:10:17.661Z,65.90
2023-04-13T16:12:45.679Z,66.32
2023-04-13T16:15:13.930Z,66.73
2023-04-13T16:17:44.172Z,66.95
2023-04-13T16:20:19.486Z,67.02
2023-04-13T16:22:49.529Z,67.23
2023-04-13T16:25:19.540Z,67.28
2023-04-13T16:27:48.876Z,67.34
2023-04-13T16:30:20.049Z,67.80
2023-04-13T16:32:49.397Z,67.99
2023-04-13T16:35:17.544Z,67.32
2023-04-13T16:37:45.645Z,67.41
2023-04-13T16:40:15.241Z,67.49
2023-04-13T16:42:46.139Z,67.77
2023-04-13T16:45:15.431Z,68.45
2023-04-13T16:47:43.770Z,68.25
2023-04-13T16:50:13.219Z,68.67
2023-04-13T16:52:41.357Z,68.98
2023-04-13T16:55:13.986Z,68.94
2023-04-13T16:57:44.195Z,68.89
2023-04-13T17:00:15.046Z,68.73
2023-04-13T17:02:43.881Z,69.59
2023-04-13T17:05:13.541Z,70.17
2023-04-13T17:07:43.052Z,69.86
2023-04-13T17:10:12.547Z,70.26
2023-04-13T17:12:41.166Z,70.32
2023-04-13T17:15:11.484Z,70.86
2023-04-13T17:17:39.414Z,70.14
2023-04-13T17:20:08.618Z,71.25
2023-04-13T17:22:36.515Z,71.02
2023-04-13T17:25:04.881Z,70.46
2023-04-13T17:27:32.785Z,70.80
2023-04-13T17:30:00.768Z,71.26
2023-04-13T17:32:30.229Z,70.46
2023-04-13T17:34:58.513Z,71.37
2023-04-13T17:37:26.563Z,71.33
2023-04-13T17:39:54.446Z,70.80
2023-04-13T17:42:22.939Z,71.27
2023-04-13T17:44:50.868Z,70.66
2023-04-13T17:47:18.824Z,71.93
2023-04-13T17:49:48.096Z,71.64
2023-04-13T17:52:16.008Z,71.54
2023-04-13T17:54:44.333Z,71.48
2023-04-13T17:57:12.273Z,72.06
2023-04-13T17:59:41.758Z,72.86
2023-04-13T18:02:09.793Z,72.18
2023-04-13T18:04:37.829Z,71.81
2023-04-13T18:07:07.289Z,72.34
2023-04-13T18:09:35.310Z,72.82
2023-04-13T18:12:03.483Z,72.14
2023-04-13T18:14:31.391Z,72.75
2023-04-13T18:16:59.354Z,73.12
2023-04-13T18:19:28.304Z,74.62
2023-04-13T18:21:56.313Z,73.42
2023-04-13T18:24:25.883Z,74.82
2023-04-13T18:26:53.894Z,73.79
2023-04-13T18:29:21.777Z,73.84
2023-04-13T18:31:49.723Z,74.32
2023-04-13T18:34:17.731Z,74.63
2023-04-13T18:36:45.811Z,73.72
2023-04-13T18:39:14.221Z,73.05
2023-04-13T18:41:43.637Z,73.25
2023-04-13T18:44:11.517Z,73.28
2023-04-13T18:46:39.522Z,73.46
2023-04-13T18:49:07.511Z,74.18
2023-04-13T18:51:35.402Z,73.22
2023-04-13T18:54:04.505Z,73.86
2023-04-13T18:56:34.491Z,73.22
2023-04-13T18:59:03.806Z,73.03
2023-04-13T19:01:31.900Z,73.36
2023-04-13T19:04:00.286Z,72.98
2023-04-13T19:06:28.433Z,73.95
2023-04-13T19:08:56.394Z,73.49
2023-04-13T19:11:27.415Z,73.07
2023-04-13T19:13:55.446Z,73.68
2023-04-13T19:16:26.166Z,73.28
2023-04-13T19:18:54.092Z,73.52
2023-04-13T19:21:23.857Z,73.82
2023-04-13T19:23:51.804Z,75.40
2023-04-13T19:26:19.770Z,75.23
2023-04-13T19:28:48.218Z,75.14
2023-04-13T19:31:16.430Z,75.45
2023-04-13T19:33:46.483Z,75.68
2023-04-13T19:36:14.501Z,75.06
2023-04-13T19:38:44.894Z,75.25
2023-04-13T19:41:12.850Z,74.93
2023-04-13T19:43:40.767Z,76.01
2023-04-13T19:46:08.683Z,75.62
2023-04-13T19:48:36.591Z,75.43
2023-04-13T19:51:06.305Z,75.70
2023-04-13T19:53:35.299Z,76.00
2023-04-13T19:56:04.789Z,76.11
2023-04-13T19:58:32.726Z,75.65
2023-04-13T20:01:00.961Z,76.02
2023-04-13T20:03:29.019Z,75.85
2023-04-13T20:05:58.210Z,76.97
2023-04-13T20:08:27.499Z,76.27
2023-04-13T20:10:55.352Z,76.90
2023-04-13T20:13:23.292Z,76.70
2023-04-13T20:15:51.161Z,77.68
2023-04-13T20:18:19.096Z,77.91
2023-04-13T20:20:48.008Z,77.07
2023-04-13T20:23:15.845Z,77.72
2023-04-13T20:25:45.047Z,78.35
2023-04-13T20:28:13.079Z,78.14
2023-04-13T20:30:40.915Z,79.11
2023-04-13T20:33:08.795Z,78.67
2023-04-13T20:35:36.785Z,78.84
2023-04-13T20:38:05.188Z,78.41
2023-04-13T20:40:36.291Z,78.43
2023-04-13T20:43:06.289Z,78.35
2023-04-13T20:45:36.171Z,78.14
2023-04-13T20:50:35.768Z,77.83
2023-04-13T20:53:04.870Z,78.12
2023-04-13T20:55:33.329Z,78.11
2023-04-13T20:58:01.729Z,77.95
2023-04-13T21:00:31.206Z,77.35
2023-04-13T21:03:00.203Z,78.45
2023-04-13T21:05:28.236Z,78.20
2023-04-13T21:07:57.152Z,78.51
2023-04-13T21:10:25.558Z,79.13
2023-04-13T21:12:53.494Z,78.51
2023-04-13T21:15:21.370Z,79.09
2023-04-13T21:17:50.641Z,78.62
2023-04-13T21:20:18.707Z,78.76
2023-04-13T21:22:46.579Z,78.93
2023-04-13T21:25:14.657Z,79.16
2023-04-13T21:27:42.584Z,78.52
2023-04-13T21:30:11.136Z,79.21
2023-04-13T21:32:38.994Z,78.84
2023-04-13T21:35:10.138Z,78.61
2023-04-13T21:37:38.022Z,79.58
2023-04-13T21:40:07.134Z,79.91
2023-04-13T21:42:35.043Z,80.14
2023-04-13T21:45:03.193Z,80.34
2023-04-13T21:47:31.767Z,80.45
2023-04-13T21:49:59.698Z,79.74
2023-04-13T21:52:29.752Z,79.97
2023-04-13T21:54:59.648Z,79.98
2023-04-13T21:57:27.686Z,80.50
2023-04-13T21:59:56.341Z,80.31
2023-04-13T22:02:24.522Z,79.68
2023-04-13T22:04:52.475Z,79.72
2023-04-13T22:07:28.423Z,79.21
2023-04-13T22:10:06.344Z,79.25
2023-04-13T22:12:34.302Z,79.94
2023-04-13T22:15:02.241Z,79.63
2023-04-13T22:17:30.305Z,79.49
2023-04-13T22:19:58.177Z,80.13
2023-04-13T22:22:27.062Z,79.62
2023-04-13T22:24:54.909Z,79.32
2023-04-13T22:27:24.211Z,79.72
2023-04-13T22:29:55.170Z,80.13
2023-04-13T22:32:23.052Z,80.03
2023-04-13T22:34:51.150Z,79.96
2023-04-13T22:37:19.009Z,79.93
2023-04-13T22:39:46.932Z,80.29
2023-04-13T22:42:14.850Z,80.15
2023-04-13T22:44:44.147Z,80.53
2023-04-13T22:47:12.095Z,79.56
2023-04-13T22:49:39.963Z,80.18
2023-04-13T22:52:08.008Z,80.30
2023-04-13T22:54:35.911Z,80.01
2023-04-13T22:57:05.311Z,79.85
2023-04-13T22:59:33.478Z,79.95
2023-04-13T23:02:03.720Z,80.17
2023-04-13T23:04:32.034Z,79.38
2023-04-13T23:07:00.036Z,79.46
2023-04-13T23:09:27.876Z,79.18
2023-04-13T23:11:55.700Z,78.90
2023-04-13T23:14:23.713Z,79.41
2023-04-13T23:16:51.798Z,78.79
2023-04-13T23:19:21.022Z,79.47
2023-04-13T23:21:48.998Z,79.17
2023-04-13T23:24:16.952Z,79.72
2023-04-13T23:26:44.809Z,80.00
2023-04-13T23:29:12.742Z,80.26
2023-04-13T23:31:41.039Z,79.91
2023-04-13T23:34:08.999Z,79.94
2023-04-13T23:36:38.373Z,80.00
2023-04-13T23:39:06.420Z,80.46
2023-04-13T23:41:34.351Z,80.66
2023-04-13T23:44:02.221Z,80.47
2023-04-13T23:46:30.422Z,80.19
2023-04-13T23:48:58.459Z,80.60
2023-04-13T23:51:26.550Z,80.82
2023-04-13T23:53:55.845Z,80.98
2023-04-13T23:56:23.709Z,81.28
2023-04-13T23:58:51.501Z,81.15
